Donnes mto: Actuelle dimanche, 12/07/2020 14:30
Date Horaire Temp. E. Hum. E. P.atmo. Pluie Vent Direction Direction Ensoleilleme Solaire P. de rose Temp au vent Rafales
12/07/2020 14:30 25,2 C 38 % 1022,5 hPa 0,0 l/m 0,6 km/h (0 Bft) E-SE 115 60 min 881 W/m 9,9 C 25,2 C 6,4 km/h (2 Bft)
12/07/2020 13:30 24,3 C 41 % 1022,8 hPa 0,0 l/m 0,0 km/h (0 Bft) E-SE 115 60 min 889 W/m 10,2 C 24,3 C 0,0 km/h (0 Bft)
12/07/2020 12:30 23,1 C 41 % 1022,9 hPa 0,0 l/m 0,8 km/h (0 Bft) N-NE 14 60 min 858 W/m 9,1 C 23,1 C 6,4 km/h (2 Bft)
12/07/2020 11:30 21,6 C 48 % 1023,1 hPa 0,0 l/m 0,1 km/h (0 Bft) O-SO 256 60 min 775 W/m 10,1 C 21,6 C 3,2 km/h (1 Bft)
12/07/2020 10:30 19,8 C 53 % 1023,1 hPa 0,0 l/m 0,2 km/h (0 Bft) NE 41 60 min 656 W/m 9,9 C 19,8 C 3,2 km/h (1 Bft)
12/07/2020 09:30 16,6 C 66 % 1023,1 hPa 0,0 l/m 0,0 km/h (0 Bft) E 81 15 min 506 W/m 10,2 C 16,6 C 0,0 km/h (0 Bft)
12/07/2020 08:15 12,9 C 74 % 1022,6 hPa 0,0 l/m 0,0 km/h (0 Bft) N 0 0 min 93 W/m 8,4 C 12,9 C 0,0 km/h (0 Bft)
12/07/2020 05:15 11,5 C 72 % 1022,0 hPa 0,0 l/m 0,0 km/h (0 Bft) N 0 0 min 0 W/m 6,6 C 11,5 C 0,0 km/h (0 Bft)
12/07/2020 02:15 11,9 C 74 % 1022,0 hPa 0,0 l/m 0,0 km/h (0 Bft) N 0 0 min 0 W/m 7,4 C 11,9 C 0,0 km/h (0 Bft)
11/07/2020 23:55 13,5 C 68 % 1022,6 hPa 0,0 l/m 0,0 km/h (0 Bft) E 80 0 min 0 W/m 7,7 C 13,5 C 0,0 km/h (0 Bft)
11/07/2020 22:55 15,1 C 63 % 1022,5 hPa 0,0 l/m 0,0 km/h (0 Bft) E 80 0 min 0 W/m 8,1 C 15,1 C 0,0 km/h (0 Bft)
11/07/2020 21:55 18,6 C 57 % 1022,2 hPa 0,0 l/m 0,0 km/h (0 Bft) E 80 0 min 0 W/m 9,9 C 18,6 C 0,0 km/h (0 Bft)
11/07/2020 20:55 20,7 C 52 % 1021,7 hPa 0,0 l/m 0,0 km/h (0 Bft) E 80 0 min 37 W/m 10,5 C 20,7 C 0,0 km/h (0 Bft)
11/07/2020 19:55 22,2 C 52 % 1021,3 hPa 0,0 l/m 0,0 km/h (0 Bft) E 80 15 min 56 W/m 11,9 C 22,2 C 0,0 km/h (0 Bft)
11/07/2020 18:55 24,4 C 45 % 1021,0 hPa 0,0 l/m 0,3 km/h (0 Bft) N-NE 16 35 min 130 W/m 11,7 C 24,4 C 4,8 km/h (1 Bft)
11/07/2020 17:55 25,1 C 46 % 1021,1 hPa 0,0 l/m 0,0 km/h (0 Bft) NE 36 60 min 561 W/m 12,7 C 25,1 C 0,0 km/h (0 Bft)
11/07/2020 16:55 24,5 C 50 % 1020,9 hPa 0,0 l/m 0,2 km/h (0 Bft) E-NE 61 60 min 686 W/m 13,4 C 24,5 C 3,2 km/h (1 Bft)
11/07/2020 15:55 23,3 C 48 % 1021,0 hPa 0,0 l/m 0,0 km/h (0 Bft) E-SE 123 45 min 139 W/m 11,7 C 23,3 C 0,0 km/h (0 Bft)
11/07/2020 15:00 21,8 C 48 % 1020,8 hPa 0,0 l/m 4,2 km/h (1 Bft) O 267 0 min 1025 W/m 10,3 C 21,8 C 9,7 km/h (2 Bft)
_ Min-Heure 06:30 13:40 15:00 - 15:30 - - - - 05:00 06:30 15:30
Minimum _ 10,2 C 35 % 1020,8 hPa - 0,0 km/h (0 Bft) - - - - 6,4 C 10,2 C 0,0 km/h (0 Bft)
_ Max-Heure 18:05 07:30 10:05 15:00 15:20 - - 15:00 15:15 16:25 18:05 17:30
Maximum _ 25,3 C 83 % 1023,2 hPa 0,0 l/m 6,5 km/h
S (2 Bft)
- - 5 min 1048 W/m 13,8 C 25,3 C 16,1 km/h
N (3 Bft)
Moyenne _ 18,0 C 59 % 1022,0 hPa #0,0 l/m 0,6 km/h (0 Bft) N - #5:15 h 476 W/m 9,4 C 18,0 C 2,5 km/h (1 Bft)